MLISHS1 KCOS-KILM
Flight info
| Callsign | MLISHS1 |
|---|---|
| Flight time | N/A |
| Altitude | 27000 |
| Route | ILM |
| Aircraft | F16/M-VRDW/C |
Departure
| Time | N/A |
|---|---|
| Airport | City of Colorado Springs Municipal Airport (KCOS) |
Arrival
| Time | 2026-05-07 00:09 |
|---|---|
| Airport | Wilmington International Airport (KILM) |
| Time | Latitude | Longitude | Altitude | Speed | Heading |
|---|---|---|---|---|---|
| 2026-05-06 23:11 | 39.96133 | -83.36775 | 27028 ft | 579 kts | 88° |
| 2026-05-06 23:11 | 39.96257 | -83.31551 | 27022 ft | 578 kts | 89° |
| 2026-05-06 23:12 | 39.96389 | -83.26273 | 27016 ft | 578 kts | 89° |
| 2026-05-06 23:12 | 39.96521 | -83.21013 | 27018 ft | 578 kts | 91° |
| 2026-05-06 23:12 | 39.96026 | -83.15895 | 27089 ft | 568 kts | 109° |
| 2026-05-06 23:12 | 39.94484 | -83.11301 | 27095 ft | 556 kts | 127° |
| 2026-05-06 23:13 | 39.92005 | -83.07513 | 27097 ft | 542 kts | 144° |
| 2026-05-06 23:13 | 39.89166 | -83.04215 | 27027 ft | 544 kts | 141° |
| 2026-05-06 23:13 | 39.86422 | -83.00899 | 27017 ft | 545 kts | 141° |
| 2026-05-06 23:13 | 39.83602 | -82.97540 | 27019 ft | 545 kts | 141° |
| 2026-05-06 23:14 | 39.80798 | -82.94215 | 27022 ft | 545 kts | 142° |
| 2026-05-06 23:14 | 39.78008 | -82.90923 | 27020 ft | 545 kts | 142° |
| 2026-05-06 23:14 | 39.75167 | -82.87574 | 27015 ft | 545 kts | 142° |
| 2026-05-06 23:14 | 39.72364 | -82.84285 | 27017 ft | 544 kts | 142° |
| 2026-05-06 23:15 | 39.69574 | -82.81014 | 27012 ft | 541 kts | 142° |
| 2026-05-06 23:15 | 39.66774 | -82.77732 | 27012 ft | 539 kts | 142° |
| 2026-05-06 23:15 | 39.63996 | -82.74525 | 27009 ft | 537 kts | 142° |
| 2026-05-06 23:15 | 39.61188 | -82.71307 | 27012 ft | 537 kts | 142° |
| 2026-05-06 23:16 | 39.58380 | -82.68075 | 27015 ft | 537 kts | 142° |
| 2026-05-06 23:16 | 39.55608 | -82.64889 | 27015 ft | 536 kts | 142° |
| 2026-05-06 23:16 | 39.52796 | -82.61710 | 27014 ft | 536 kts | 143° |
| 2026-05-06 23:16 | 39.49966 | -82.58501 | 27013 ft | 537 kts | 142° |
| 2026-05-06 23:17 | 39.47192 | -82.55234 | 27002 ft | 537 kts | 142° |
| 2026-05-06 23:17 | 39.44423 | -82.52035 | 26997 ft | 537 kts | 142° |
| 2026-05-06 23:17 | 39.41585 | -82.48825 | 26990 ft | 537 kts | 142° |
| 2026-05-06 23:17 | 39.38782 | -82.45667 | 26988 ft | 537 kts | 142° |
| 2026-05-06 23:18 | 39.35954 | -82.42464 | 26982 ft | 537 kts | 142° |
| 2026-05-06 23:18 | 39.33181 | -82.39352 | 26984 ft | 537 kts | 143° |
| 2026-05-06 23:18 | 39.30332 | -82.36169 | 26978 ft | 538 kts | 142° |
| 2026-05-06 23:18 | 39.27512 | -82.32928 | 26969 ft | 538 kts | 142° |
| 2026-05-06 23:19 | 39.24743 | -82.29707 | 26969 ft | 537 kts | 142° |
| 2026-05-06 23:19 | 39.21968 | -82.26463 | 26963 ft | 537 kts | 142° |
| 2026-05-06 23:19 | 39.19190 | -82.23249 | 26973 ft | 536 kts | 143° |
| 2026-05-06 23:19 | 39.16360 | -82.20111 | 26972 ft | 535 kts | 143° |
| 2026-05-06 23:20 | 39.13558 | -82.16973 | 26969 ft | 536 kts | 143° |
| 2026-05-06 23:20 | 39.10752 | -82.13771 | 26969 ft | 536 kts | 142° |
| 2026-05-06 23:20 | 39.07947 | -82.10556 | 26968 ft | 536 kts | 142° |
| 2026-05-06 23:20 | 39.05178 | -82.07368 | 26973 ft | 536 kts | 142° |
| 2026-05-06 23:21 | 39.02369 | -82.04154 | 26968 ft | 536 kts | 143° |
| 2026-05-06 23:21 | 38.99541 | -82.01022 | 26970 ft | 536 kts | 144° |
| 2026-05-06 23:21 | 38.96760 | -81.97877 | 26971 ft | 536 kts | 143° |
| 2026-05-06 23:21 | 38.93980 | -81.94637 | 26963 ft | 537 kts | 142° |
| 2026-05-06 23:22 | 38.91239 | -81.91399 | 26970 ft | 537 kts | 143° |
| 2026-05-06 23:22 | 38.88471 | -81.88110 | 26978 ft | 538 kts | 143° |
| 2026-05-06 23:22 | 38.85722 | -81.84843 | 26978 ft | 538 kts | 143° |
| 2026-05-06 23:22 | 38.82979 | -81.81604 | 26982 ft | 538 kts | 143° |
| 2026-05-06 23:23 | 38.80208 | -81.78353 | 26981 ft | 538 kts | 143° |
| 2026-05-06 23:23 | 38.77431 | -81.75140 | 26985 ft | 538 kts | 144° |
| 2026-05-06 23:23 | 38.74613 | -81.71931 | 26980 ft | 539 kts | 144° |
| 2026-05-06 23:23 | 38.71801 | -81.68729 | 26983 ft | 539 kts | 144° |
| 2026-05-06 23:24 | 38.69035 | -81.65569 | 26984 ft | 539 kts | 144° |
| 2026-05-06 23:24 | 38.66210 | -81.62376 | 26985 ft | 539 kts | 144° |
| 2026-05-06 23:24 | 38.63374 | -81.59158 | 26986 ft | 540 kts | 144° |
| 2026-05-06 23:24 | 38.60586 | -81.55974 | 26987 ft | 541 kts | 144° |
| 2026-05-06 23:25 | 38.57746 | -81.52769 | 26984 ft | 540 kts | 144° |
| 2026-05-06 23:25 | 38.54911 | -81.49606 | 26981 ft | 541 kts | 144° |
| 2026-05-06 23:25 | 38.52099 | -81.46462 | 26988 ft | 541 kts | 144° |
| 2026-05-06 23:25 | 38.49255 | -81.43288 | 26994 ft | 541 kts | 144° |
| 2026-05-06 23:26 | 38.46402 | -81.40122 | 26986 ft | 542 kts | 144° |
| 2026-05-06 23:26 | 38.43580 | -81.36910 | 26984 ft | 543 kts | 143° |
| 2026-05-06 23:26 | 38.40744 | -81.33643 | 26979 ft | 544 kts | 144° |
| 2026-05-06 23:26 | 38.37933 | -81.30392 | 26981 ft | 544 kts | 144° |
| 2026-05-06 23:27 | 38.35128 | -81.27142 | 26976 ft | 543 kts | 144° |
| 2026-05-06 23:27 | 38.32280 | -81.23976 | 26978 ft | 542 kts | 146° |
| 2026-05-06 23:27 | 38.29431 | -81.20842 | 26982 ft | 543 kts | 144° |
| 2026-05-06 23:27 | 38.26641 | -81.17673 | 26981 ft | 543 kts | 144° |
| 2026-05-06 23:28 | 38.23824 | -81.14440 | 26980 ft | 543 kts | 144° |
| 2026-05-06 23:28 | 38.20967 | -81.11286 | 26977 ft | 542 kts | 146° |
| 2026-05-06 23:28 | 38.18119 | -81.08197 | 26974 ft | 542 kts | 145° |
| 2026-05-06 23:28 | 38.15250 | -81.05032 | 26976 ft | 543 kts | 145° |
| 2026-05-06 23:29 | 38.12432 | -81.01917 | 26980 ft | 540 kts | 146° |
| 2026-05-06 23:29 | 38.09594 | -80.98806 | 26981 ft | 539 kts | 146° |
| 2026-05-06 23:29 | 38.06778 | -80.95712 | 26975 ft | 538 kts | 146° |
| 2026-05-06 23:29 | 38.03941 | -80.92550 | 26977 ft | 537 kts | 145° |
| 2026-05-06 23:30 | 38.01185 | -80.89454 | 26985 ft | 535 kts | 145° |
| 2026-05-06 23:30 | 37.98376 | -80.86304 | 26977 ft | 533 kts | 145° |
| 2026-05-06 23:30 | 37.95613 | -80.83189 | 26974 ft | 531 kts | 145° |
| 2026-05-06 23:30 | 37.92864 | -80.80081 | 26964 ft | 531 kts | 145° |
| 2026-05-06 23:31 | 37.90118 | -80.76969 | 26966 ft | 530 kts | 145° |
| 2026-05-06 23:31 | 37.87389 | -80.73878 | 26977 ft | 530 kts | 145° |
| 2026-05-06 23:31 | 37.84651 | -80.70793 | 26970 ft | 530 kts | 145° |
| 2026-05-06 23:31 | 37.81891 | -80.67710 | 26980 ft | 530 kts | 145° |
| 2026-05-06 23:32 | 37.79110 | -80.64623 | 26982 ft | 530 kts | 146° |
| 2026-05-06 23:32 | 37.76321 | -80.61548 | 26973 ft | 530 kts | 146° |
| 2026-05-06 23:32 | 37.73505 | -80.58469 | 26973 ft | 530 kts | 146° |
| 2026-05-06 23:32 | 37.70743 | -80.55476 | 26977 ft | 530 kts | 146° |
| 2026-05-06 23:33 | 37.67934 | -80.52465 | 26976 ft | 530 kts | 146° |
| 2026-05-06 23:33 | 37.65101 | -80.49453 | 26968 ft | 530 kts | 146° |
| 2026-05-06 23:33 | 37.62277 | -80.46383 | 26970 ft | 530 kts | 146° |
| 2026-05-06 23:33 | 37.59472 | -80.43314 | 26970 ft | 530 kts | 146° |
| 2026-05-06 23:34 | 37.56697 | -80.40297 | 26967 ft | 529 kts | 146° |
| 2026-05-06 23:34 | 37.53900 | -80.37278 | 26974 ft | 530 kts | 146° |
| 2026-05-06 23:34 | 37.51057 | -80.34238 | 26973 ft | 530 kts | 147° |
| 2026-05-06 23:34 | 37.48272 | -80.31271 | 26948 ft | 530 kts | 147° |
| 2026-05-06 23:35 | 37.45429 | -80.28239 | 26951 ft | 530 kts | 147° |
| 2026-05-06 23:35 | 37.42600 | -80.25217 | 26944 ft | 530 kts | 147° |
| 2026-05-06 23:35 | 37.39828 | -80.22250 | 26946 ft | 530 kts | 147° |
| 2026-05-06 23:35 | 37.36998 | -80.19216 | 26939 ft | 530 kts | 146° |
| 2026-05-06 23:36 | 37.34185 | -80.16270 | 26937 ft | 529 kts | 148° |
| 2026-05-06 23:36 | 37.31332 | -80.13376 | 26937 ft | 529 kts | 147° |
| 2026-05-06 23:36 | 37.28545 | -80.10435 | 26937 ft | 530 kts | 147° |
| 2026-05-06 23:36 | 37.25700 | -80.07433 | 26934 ft | 529 kts | 147° |
| 2026-05-06 23:37 | 37.22884 | -80.04486 | 26936 ft | 529 kts | 147° |
| 2026-05-06 23:37 | 37.20043 | -80.01510 | 26939 ft | 529 kts | 147° |
| 2026-05-06 23:37 | 37.17230 | -79.98555 | 26935 ft | 529 kts | 147° |
| 2026-05-06 23:37 | 37.14370 | -79.95616 | 26941 ft | 527 kts | 148° |
| 2026-05-06 23:38 | 37.11533 | -79.92814 | 26940 ft | 526 kts | 149° |
| 2026-05-06 23:38 | 37.08653 | -79.89959 | 26931 ft | 527 kts | 148° |
| 2026-05-06 23:38 | 37.05808 | -79.87031 | 26939 ft | 528 kts | 148° |
| 2026-05-06 23:38 | 37.02967 | -79.84164 | 26946 ft | 527 kts | 148° |
| 2026-05-06 23:39 | 37.00093 | -79.81301 | 26950 ft | 527 kts | 148° |
| 2026-05-06 23:39 | 36.97203 | -79.78423 | 26954 ft | 528 kts | 148° |
| 2026-05-06 23:39 | 36.94341 | -79.75572 | 26956 ft | 528 kts | 148° |
| 2026-05-06 23:39 | 36.91463 | -79.72702 | 26961 ft | 529 kts | 148° |
| 2026-05-06 23:40 | 36.88581 | -79.69849 | 26968 ft | 529 kts | 148° |
| 2026-05-06 23:40 | 36.85640 | -79.67023 | 26972 ft | 529 kts | 149° |
| 2026-05-06 23:40 | 36.82742 | -79.64243 | 26970 ft | 530 kts | 149° |
| 2026-05-06 23:40 | 36.79777 | -79.61417 | 26969 ft | 531 kts | 149° |
| 2026-05-06 23:41 | 36.76831 | -79.58645 | 26966 ft | 531 kts | 149° |
| 2026-05-06 23:41 | 36.73863 | -79.55905 | 26964 ft | 531 kts | 150° |
| 2026-05-06 23:41 | 36.70899 | -79.53185 | 26961 ft | 532 kts | 150° |
| 2026-05-06 23:41 | 36.67943 | -79.50468 | 26960 ft | 533 kts | 150° |
| 2026-05-06 23:42 | 36.64919 | -79.47725 | 26959 ft | 533 kts | 150° |
| 2026-05-06 23:42 | 36.61921 | -79.45011 | 26962 ft | 534 kts | 150° |
| 2026-05-06 23:42 | 36.58943 | -79.42266 | 26963 ft | 535 kts | 149° |
| 2026-05-06 23:42 | 36.55926 | -79.39490 | 26962 ft | 536 kts | 150° |
| 2026-05-06 23:43 | 36.52960 | -79.36784 | 26963 ft | 536 kts | 150° |
| 2026-05-06 23:43 | 36.49925 | -79.34065 | 26957 ft | 536 kts | 151° |
| 2026-05-06 23:43 | 36.46886 | -79.31388 | 26951 ft | 536 kts | 151° |
| 2026-05-06 23:43 | 36.43828 | -79.28691 | 26953 ft | 537 kts | 151° |
| 2026-05-06 23:44 | 36.40811 | -79.25993 | 26959 ft | 537 kts | 151° |
| 2026-05-06 23:44 | 36.37779 | -79.23267 | 26966 ft | 537 kts | 150° |
| 2026-05-06 23:44 | 36.34732 | -79.20521 | 26977 ft | 537 kts | 150° |
| 2026-05-06 23:44 | 36.31733 | -79.17810 | 26984 ft | 537 kts | 150° |
| 2026-05-06 23:45 | 36.28726 | -79.15092 | 26988 ft | 537 kts | 150° |
| 2026-05-06 23:45 | 36.25705 | -79.12421 | 26988 ft | 537 kts | 151° |
| 2026-05-06 23:45 | 36.22619 | -79.09735 | 26988 ft | 537 kts | 151° |
| 2026-05-06 23:45 | 36.19604 | -79.07111 | 26988 ft | 537 kts | 151° |
| 2026-05-06 23:46 | 36.16516 | -79.04416 | 26988 ft | 536 kts | 151° |
| 2026-05-06 23:46 | 36.13452 | -79.01782 | 26986 ft | 534 kts | 152° |
| 2026-05-06 23:46 | 36.10429 | -78.99242 | 26537 ft | 544 kts | 152° |
| 2026-05-06 23:46 | 36.07206 | -78.96571 | 25258 ft | 555 kts | 152° |
| 2026-05-06 23:47 | 36.03994 | -78.93924 | 24025 ft | 560 kts | 151° |
| 2026-05-06 23:47 | 36.00732 | -78.91254 | 22800 ft | 564 kts | 152° |
| 2026-05-06 23:47 | 35.97454 | -78.88607 | 21653 ft | 563 kts | 152° |
| 2026-05-06 23:47 | 35.94193 | -78.86037 | 21303 ft | 558 kts | 152° |
| 2026-05-06 23:48 | 35.90914 | -78.83501 | 21126 ft | 554 kts | 153° |
| 2026-05-06 23:48 | 35.87592 | -78.80975 | 21031 ft | 553 kts | 153° |
| 2026-05-06 23:48 | 35.84305 | -78.78502 | 20928 ft | 553 kts | 153° |
| 2026-05-06 23:48 | 35.81052 | -78.76077 | 20964 ft | 551 kts | 153° |
| 2026-05-06 23:49 | 35.77740 | -78.73631 | 20968 ft | 551 kts | 154° |
| 2026-05-06 23:49 | 35.74453 | -78.71224 | 20968 ft | 551 kts | 154° |
| 2026-05-06 23:49 | 35.71138 | -78.68813 | 20967 ft | 551 kts | 154° |
| 2026-05-06 23:49 | 35.67820 | -78.66417 | 20965 ft | 551 kts | 154° |
| 2026-05-06 23:50 | 35.64484 | -78.64023 | 20963 ft | 551 kts | 154° |
| 2026-05-06 23:50 | 35.57858 | -78.59300 | 20962 ft | 550 kts | 154° |
| 2026-05-06 23:50 | 35.54515 | -78.56934 | 20960 ft | 550 kts | 154° |
| 2026-05-06 23:51 | 35.51216 | -78.54606 | 20959 ft | 550 kts | 154° |
| 2026-05-06 23:51 | 35.47860 | -78.52246 | 20952 ft | 551 kts | 154° |
| 2026-05-06 23:51 | 35.44493 | -78.49892 | 19852 ft | 567 kts | 154° |
| 2026-05-06 23:51 | 35.41076 | -78.47523 | 18670 ft | 573 kts | 154° |
| 2026-05-06 23:52 | 35.37580 | -78.45120 | 17482 ft | 576 kts | 154° |
| 2026-05-06 23:52 | 35.34054 | -78.42718 | 16294 ft | 579 kts | 154° |
| 2026-05-06 23:52 | 35.30564 | -78.40363 | 15126 ft | 582 kts | 154° |
| 2026-05-06 23:52 | 35.26966 | -78.37955 | 13929 ft | 585 kts | 154° |
| 2026-05-06 23:53 | 35.23425 | -78.35608 | 12759 ft | 588 kts | 154° |
| 2026-05-06 23:53 | 35.19806 | -78.33228 | 11582 ft | 590 kts | 155° |
| 2026-05-06 23:53 | 35.16173 | -78.30866 | 11018 ft | 584 kts | 155° |
| 2026-05-06 23:53 | 35.12609 | -78.28587 | 10981 ft | 577 kts | 155° |
| 2026-05-06 23:54 | 35.09071 | -78.26336 | 10967 ft | 572 kts | 156° |
| 2026-05-06 23:54 | 35.05505 | -78.24094 | 10962 ft | 568 kts | 156° |
| 2026-05-06 23:54 | 35.02027 | -78.21921 | 10961 ft | 564 kts | 156° |
| 2026-05-06 23:54 | 34.98696 | -78.19840 | 10957 ft | 487 kts | 156° |
| 2026-05-06 23:55 | 34.95961 | -78.18095 | 10953 ft | 402 kts | 157° |
| 2026-05-06 23:55 | 34.93711 | -78.16635 | 10949 ft | 340 kts | 157° |
| 2026-05-06 23:55 | 34.91764 | -78.15329 | 10762 ft | 296 kts | 157° |
| 2026-05-06 23:55 | 34.90036 | -78.14166 | 10102 ft | 276 kts | 157° |
| 2026-05-06 23:56 | 34.88403 | -78.13030 | 9348 ft | 275 kts | 156° |
| 2026-05-06 23:56 | 34.86704 | -78.11867 | 8551 ft | 282 kts | 156° |
| 2026-05-06 23:56 | 34.85043 | -78.10745 | 7593 ft | 272 kts | 156° |
| 2026-05-06 23:56 | 34.83429 | -78.09668 | 6695 ft | 261 kts | 155° |
| 2026-05-06 23:57 | 34.81892 | -78.08618 | 5873 ft | 249 kts | 155° |
| 2026-05-06 23:57 | 34.80412 | -78.07653 | 5173 ft | 233 kts | 156° |
| 2026-05-06 23:57 | 34.79019 | -78.06761 | 4540 ft | 221 kts | 156° |
| 2026-05-06 23:57 | 34.77644 | -78.05954 | 4120 ft | 216 kts | 159° |
| 2026-05-06 23:58 | 34.76299 | -78.05191 | 3969 ft | 209 kts | 152° |
| 2026-05-06 23:58 | 34.75283 | -78.04004 | 3980 ft | 203 kts | 129° |
| 2026-05-06 23:58 | 34.74440 | -78.02613 | 3992 ft | 207 kts | 132° |
| 2026-05-06 23:58 | 34.73525 | -78.01180 | 4012 ft | 221 kts | 133° |
| 2026-05-06 23:59 | 34.72541 | -77.99663 | 4014 ft | 235 kts | 130° |
| 2026-05-06 23:59 | 34.71572 | -77.97999 | 4062 ft | 249 kts | 130° |
| 2026-05-06 23:59 | 34.70528 | -77.96285 | 4062 ft | 247 kts | 130° |
| 2026-05-06 23:59 | 34.69540 | -77.94645 | 3980 ft | 233 kts | 130° |
| 2026-05-07 00:00 | 34.68607 | -77.93054 | 3986 ft | 230 kts | 129° |
| 2026-05-07 00:00 | 34.67674 | -77.91451 | 3982 ft | 235 kts | 129° |
| 2026-05-07 00:00 | 34.66701 | -77.89801 | 3980 ft | 241 kts | 130° |
| 2026-05-07 00:00 | 34.66038 | -77.88692 | 3982 ft | 244 kts | 130° |
| 2026-05-07 00:01 | 34.64682 | -77.86462 | 3982 ft | 251 kts | 130° |
| 2026-05-07 00:01 | 34.63595 | -77.84757 | 3982 ft | 250 kts | 144° |
| 2026-05-07 00:01 | 34.62101 | -77.83824 | 4031 ft | 243 kts | 160° |
| 2026-05-07 00:01 | 34.60502 | -77.83003 | 3979 ft | 250 kts | 160° |
| 2026-05-07 00:02 | 34.58896 | -77.82182 | 3985 ft | 253 kts | 160° |
| 2026-05-07 00:02 | 34.57253 | -77.81340 | 3986 ft | 254 kts | 160° |
| 2026-05-07 00:02 | 34.55630 | -77.80515 | 3985 ft | 253 kts | 160° |
| 2026-05-07 00:02 | 34.54020 | -77.79696 | 3985 ft | 251 kts | 160° |
| 2026-05-07 00:03 | 34.52422 | -77.78883 | 3987 ft | 248 kts | 160° |
| 2026-05-07 00:03 | 34.50834 | -77.78069 | 3990 ft | 246 kts | 160° |
| 2026-05-07 00:03 | 34.49266 | -77.77258 | 3989 ft | 243 kts | 161° |
| 2026-05-07 00:03 | 34.47721 | -77.76453 | 3991 ft | 240 kts | 160° |
| 2026-05-07 00:04 | 34.46190 | -77.75643 | 3994 ft | 236 kts | 160° |
| 2026-05-07 00:04 | 34.44730 | -77.74850 | 4032 ft | 224 kts | 160° |
| 2026-05-07 00:04 | 34.43253 | -77.74462 | 3542 ft | 219 kts | 193° |
| 2026-05-07 00:04 | 34.41860 | -77.75091 | 2984 ft | 214 kts | 205° |
| 2026-05-07 00:05 | 34.40485 | -77.75781 | 2543 ft | 208 kts | 204° |
| 2026-05-07 00:05 | 34.39193 | -77.76402 | 2116 ft | 198 kts | 202° |
| 2026-05-07 00:05 | 34.37972 | -77.76962 | 1981 ft | 172 kts | 202° |
| 2026-05-07 00:05 | 34.36901 | -77.77449 | 2001 ft | 155 kts | 203° |
| 2026-05-07 00:06 | 34.35950 | -77.77999 | 2008 ft | 148 kts | 222° |
| 2026-05-07 00:06 | 34.35192 | -77.78856 | 1749 ft | 153 kts | 225° |
| 2026-05-07 00:06 | 34.34426 | -77.79887 | 1578 ft | 174 kts | 227° |
| 2026-05-07 00:06 | 34.33595 | -77.81026 | 1473 ft | 184 kts | 226° |
| 2026-05-07 00:07 | 34.32742 | -77.82159 | 1326 ft | 177 kts | 228° |
| 2026-05-07 00:07 | 34.31982 | -77.83239 | 1083 ft | 159 kts | 226° |
| 2026-05-07 00:07 | 34.31260 | -77.84196 | 846 ft | 151 kts | 226° |
| 2026-05-07 00:07 | 34.30562 | -77.85155 | 599 ft | 148 kts | 227° |
| 2026-05-07 00:08 | 34.29910 | -77.86043 | 523 ft | 138 kts | 225° |
| 2026-05-07 00:08 | 34.29167 | -77.87005 | 485 ft | 165 kts | 227° |
| 2026-05-07 00:08 | 34.28412 | -77.88018 | 280 ft | 157 kts | 227° |
| 2026-05-07 00:08 | 34.27731 | -77.88957 | 64 ft | 134 kts | 225° |
| 2026-05-07 00:09 | 34.27174 | -77.89702 | 37 ft | 76 kts | 228° |
| 2026-05-07 00:09 | 34.26898 | -77.90066 | 37 ft | 49 kts | 229° |
| 2026-05-07 00:09 | 34.26805 | -77.90257 | 37 ft | 14 kts | 268° |
| 2026-05-07 00:09 | 34.26804 | -77.90308 | 37 ft | 13 kts | 271° |
| 2026-05-07 00:10 | 34.26805 | -77.90397 | 37 ft | 0 kts | 270° |
| 2026-05-07 00:10 | 34.26805 | -77.90408 | 37 ft | 0 kts | 269° |
| 2026-05-07 00:11 | 34.26805 | -77.90445 | 37 ft | 9 kts | 269° |
| 2026-05-07 00:11 | 34.26827 | -77.90533 | 37 ft | 12 kts | 338° |
| 2026-05-07 00:12 | 34.26942 | -77.90582 | 37 ft | 21 kts | 337° |
| 2026-05-07 00:12 | 34.27046 | -77.90631 | 37 ft | 13 kts | 339° |
| 2026-05-07 00:12 | 34.27087 | -77.90691 | 37 ft | 13 kts | 275° |
| 2026-05-07 00:12 | 34.27071 | -77.90751 | 37 ft | 8 kts | 186° |